• Join FlightAware (Why Join?)
  • Login
  • US Flag 
03:47PM EDT


 

Airport Tracker/Info


-or-


 

Live Flight TrackerFlight Track Log ✈ DAL676 ✈ 14-Jul-2014 ✈ TIST / STT - KJFK

Flight Track Log - Related Links

Times and Time Zones

All times are in EDT time to prevent confusion due to time zone crossing. See the DAL676 flight status page for this flight to view local times or setup timezone preferences in your user account.

Time Position Orientation Groundspeed Altitude Reporting Facility
EDT Latitude Longitude Course Direction KTS MPH feet Rate Location/Type
01:19PM 18.3333 -64.9333 353° North 160 184 1,000  Level San Juan Center
01:20PM 18.2833 -64.9167 162° South 200 230 3,200 2,100 Climbing San Juan Center
01:21PM 18.2500 -64.9833 242° Southwest 280 322 5,200 2,520 Climbing San Juan Center
01:22PM 18.4712 -65.2714 348° North  Level FlightAware Approximate
01:22PM 18.2667 -65.0667 282° West 290 334 8,400  Level San Juan Center
01:23PM 18.5812 -65.2958 348° North  Level FlightAware Approximate
01:23PM 18.3500 -65.1000 339° North 320 368 11,000  Level San Juan Center
01:24PM 18.6926 -65.3123 353° North  Level FlightAware Approximate
01:24PM 18.4333 -65.1167 349° North 360 414 12,200  Level San Juan Center
01:25PM 18.5333 -65.1333 351° North 380 437 14,300 1,740 Climbing San Juan Center
01:26PM 18.6500 -65.1667 345° North 420 483 15,700 1,680 Climbing San Juan Center
01:27PM 18.7667 -65.2000 345° North 430 495 17,700 1,800 Climbing San Juan Center
01:28PM 18.9000 -65.2333 347° North 440 506 19,400 1,500 Climbing San Juan Center
01:29PM 19.0000 -65.2500 351° North 450 518 20,800 1,440 Climbing San Juan Center
01:30PM 19.1333 -65.2833 347° North 460 529 22,300 1,440 Climbing San Juan Center
01:31PM 19.2667 -65.3167 347° North 470 541 23,700 1,320 Climbing San Juan Center
01:32PM 19.4000 -65.3500 347° North 480 552 25,000 1,320 Climbing San Juan Center
01:33PM 19.5333 -65.3833 347° North 490 564 26,400 1,440 Climbing San Juan Center
01:34PM 19.6500 -65.4167 345° North 480 552 27,900 1,560 Climbing San Juan Center
01:35PM 19.7833 -65.4500 347° North 480 552 29,600 1,680 Climbing San Juan Center
01:36PM 19.9167 -65.4833 347° North 480 552 31,300 1,560 Climbing San Juan Center
01:37PM 20.0500 -65.5167 347° North 470 541 32,800 1,620 Climbing San Juan Center
01:38PM 20.1667 -65.5500 345° North 460 529 34,600 1,560 Climbing San Juan Center
01:39PM 20.2833 -65.5833 345° North 440 506 36,000 660 Climbing San Juan Center
01:40PM 20.4167 -65.6167 347° North 450 518 36,000  Level San Juan Center
01:41PM 20.5333 -65.6500 345° North 460 529 36,000  Level San Juan Center
01:42PM 20.6667 -65.6833 347° North 450 518 36,000  Level San Juan Center
01:43PM 20.7833 -65.7167 345° North 450 518 36,000  Level San Juan Center
01:44PM 20.9000 -65.7500 345° North 460 529 36,000  Level San Juan Center
01:45PM 21.0333 -65.8000 341° North 450 518 36,000  Level San Juan Center
01:46PM 21.1500 -65.8167 352° North 450 518 36,000  Level San Juan Center
01:47PM 21.2667 -65.8500 345° North 450 518 36,000  Level San Juan Center
01:48PM 21.3833 -65.8833 345° North 450 518 36,000  Level San Juan Center
01:49PM 21.5167 -65.9167 347° North 450 518 36,000  Level San Juan Center
01:50PM 21.6333 -65.9500 345° North 460 529 36,000  Level San Juan Center
01:51PM 21.7500 -65.9833 345° North 450 518 36,000  Level San Juan Center
01:52PM 21.8667 -66.0167 345° North 430 495 36,000  Level San Juan Center
01:53PM 22.0000 -66.0500 347° North 450 518 36,000  Level San Juan Center
01:54PM 22.0500 -66.0667 343° North 472 543 36,000  Level New York Oceanic (ODAPS)
02:01PM 22.9167 -66.3500 349° North 446 513 36,000  Level New York Oceanic (ODAPS)
02:35PM 27.0833 -67.2500 349° North 438 504 36,000  Level New York Oceanic (ODAPS)
02:36PM 27.3459 -67.2967 349° North 446 513 36,000  Level FlightAware Transoceanic
02:37PM 27.4688 -67.3240 349° North 446 513 36,000  Level FlightAware Transoceanic
02:38PM 27.5918 -67.3514 349° North 446 513 36,000  Level FlightAware Transoceanic
02:39PM 27.7147 -67.3789 349° North 446 513 36,000  Level FlightAware Transoceanic
02:40PM 27.8376 -67.4064 349° North 446 513 36,000  Level FlightAware Transoceanic
02:41PM 27.9606 -67.4340 349° North 446 513 36,000  Level FlightAware Transoceanic
02:42PM 28.0432 -67.4615 349° North 438 504 36,000  Level FlightAware Transoceanic
02:43PM 28.1632 -67.4882 349° North 438 504 36,000  Level FlightAware Transoceanic
02:44PM 28.2831 -67.5150 349° North 438 504 36,000  Level FlightAware Transoceanic
02:45PM 28.4031 -67.5418 349° North 438 504 36,000  Level FlightAware Transoceanic
02:46PM 28.5230 -67.5687 349° North 438 504 36,000  Level FlightAware Transoceanic
02:47PM 28.6430 -67.5956 349° North 438 504 36,000  Level FlightAware Transoceanic
02:48PM 28.7629 -67.6226 349° North 438 504 36,000  Level FlightAware Transoceanic
02:49PM 28.8828 -67.6497 349° North 438 504 36,000  Level FlightAware Transoceanic
02:50PM 29.0027 -67.6768 349° North 438 504 36,000  Level FlightAware Transoceanic
02:51PM 29.1227 -67.7040 349° North 438 504 36,000  Level FlightAware Transoceanic
02:52PM 29.2426 -67.7313 349° North 438 504 36,000  Level FlightAware Transoceanic
02:53PM 29.3625 -67.7586 349° North 438 504 36,000  Level FlightAware Transoceanic
02:54PM 29.4824 -67.7860 349° North 438 504 36,000  Level FlightAware Transoceanic
02:55PM 29.6023 -67.8135 349° North 438 504 36,000  Level FlightAware Transoceanic
02:56PM 29.7222 -67.8410 349° North 438 504 36,000  Level FlightAware Transoceanic
02:57PM 29.8420 -67.8686 349° North 438 504 36,000  Level FlightAware Transoceanic
02:58PM 29.9619 -67.8962 349° North 438 504 36,000  Level FlightAware Transoceanic
02:59PM 30.0818 -67.9239 349° North 438 504 36,000  Level FlightAware Transoceanic
03:00PM 30.2017 -67.9517 349° North 438 504 36,000  Level FlightAware Transoceanic
03:01PM 30.3215 -67.9796 349° North 438 504 36,000  Level FlightAware Transoceanic
03:02PM 30.4414 -68.0075 349° North 438 504 36,000  Level FlightAware Transoceanic
03:03PM 30.5612 -68.0355 349° North 438 504 36,000  Level FlightAware Transoceanic
03:04PM 30.6811 -68.0635 349° North 438 504 36,000  Level FlightAware Transoceanic
03:05PM 30.8009 -68.0916 349° North 438 504 36,000  Level FlightAware Transoceanic
03:06PM 30.9207 -68.1198 349° North 438 504 36,000  Level FlightAware Transoceanic
03:07PM 31.0406 -68.1481 349° North 438 504 36,000  Level FlightAware Transoceanic
03:08PM 31.1604 -68.1764 349° North 438 504 36,000  Level FlightAware Transoceanic
03:09PM 31.2802 -68.2048 349° North 438 504 36,000  Level FlightAware Transoceanic
03:10PM 31.4000 -68.2333 348° North 438 504 36,000  Level FlightAware Transoceanic
03:11PM 31.5256 -68.2637 348° North 438 504 36,000  Level FlightAware Transoceanic
03:12PM 31.6512 -68.2941 348° North 438 504 36,000  Level FlightAware Transoceanic
03:13PM 31.7767 -68.3247 348° North 438 504 36,000  Level FlightAware Transoceanic
03:14PM 31.9023 -68.3553 348° North 438 504 36,000  Level FlightAware Transoceanic
03:15PM 32.0279 -68.3859 348° North 438 504 36,000  Level FlightAware Transoceanic
03:16PM 32.1534 -68.4167 348° North 438 504 36,000  Level FlightAware Transoceanic
03:17PM 32.2789 -68.4476 348° North 438 504 36,000  Level FlightAware Transoceanic
03:18PM 32.4045 -68.4785 348° North 438 504 36,000  Level FlightAware Transoceanic
03:19PM 32.5300 -68.5096 348° North 438 504 36,000  Level FlightAware Transoceanic
03:20PM 32.6555 -68.5407 348° North 438 504 36,000  Level FlightAware Transoceanic
03:21PM 32.7810 -68.5719 348° North 438 504 36,000  Level FlightAware Transoceanic
03:22PM 32.9065 -68.6032 348° North 438 504 36,000  Level FlightAware Transoceanic
03:23PM 33.0320 -68.6345 348° North 438 504 36,000  Level FlightAware Transoceanic
03:24PM 33.1575 -68.6660 348° North 438 504 36,000  Level FlightAware Transoceanic
03:25PM 33.2830 -68.6976 348° North 438 504 36,000  Level FlightAware Transoceanic
03:26PM 33.4085 -68.7292 348° North 438 504 36,000  Level FlightAware Transoceanic
03:27PM 33.5339 -68.7610 348° North 438 504 36,000  Level FlightAware Transoceanic
03:28PM 33.6594 -68.7928 348° North 438 504 36,000  Level FlightAware Transoceanic
03:29PM 33.7848 -68.8247 348° North 438 504 36,000  Level FlightAware Transoceanic
03:30PM 33.9103 -68.8568 348° North 438 504 36,000  Level FlightAware Transoceanic
03:31PM 34.0357 -68.8889 348° North 438 504 36,000  Level FlightAware Transoceanic
03:32PM 34.1611 -68.9211 348° North 438 504 36,000  Level FlightAware Transoceanic
03:33PM 34.2865 -68.9534 348° North 438 504 36,000  Level FlightAware Transoceanic
03:34PM 34.4119 -68.9858 348° North 438 504 36,000  Level FlightAware Transoceanic
03:35PM 34.5373 -69.0183 348° North 438 504 36,000  Level FlightAware Transoceanic
03:36PM 34.6627 -69.0509 348° North 438 504 36,000  Level FlightAware Transoceanic
03:37PM 34.7881 -69.0836 348° North 438 504 36,000  Level FlightAware Transoceanic
03:38PM 34.9135 -69.1164 348° North 438 504 36,000  Level FlightAware Transoceanic
03:39PM 35.0388 -69.1493 348° North 438 504 36,000  Level FlightAware Transoceanic
03:40PM 35.1642 -69.1823 348° North 438 504 36,000  Level FlightAware Transoceanic
03:41PM 35.2895 -69.2154 348° North 438 504 36,000  Level FlightAware Transoceanic
03:42PM 35.4149 -69.2486 348° North 438 504 36,000  Level FlightAware Transoceanic
03:43PM 35.5402 -69.2819 348° North 438 504 36,000  Level FlightAware Transoceanic
03:44PM 35.6655 -69.3153 348° North 438 504 36,000  Level FlightAware Transoceanic
03:45PM 35.7908 -69.3488 348° North 438 504 36,000  Level FlightAware Transoceanic
03:46PM 35.9161 -69.3824 348° North 438 504 36,000  Level FlightAware Transoceanic
03:47PM 36.0414 -69.4162 348° North 438 504 36,000  Level FlightAware Transoceanic
03:48PM 36.1552 -69.4516 346° North  Level FlightAware Approximate
03:48PM 36.1667 -69.4500 322° Northwest 474 545 36,000  Level New York Oceanic (ODAPS)
03:58PM 37.3142 -70.5733 330° Northwest 459 528 36,000  Level New York Center
03:59PM 37.4083 -70.6716 321° Northwest 474 545 36,000  Level FlightAware Transoceanic
03:59PM 37.4144 -70.6856 318° Northwest 472 543 36,000  Level New York Center
04:00PM 37.5112 -70.7753 321° Northwest 474 545 36,000  Level FlightAware Transoceanic
04:00PM 37.5144 -70.7878 321° Northwest 472 543 36,000  Level New York Center
04:01PM 37.6140 -70.8792 321° Northwest 474 545 36,000  Level FlightAware Transoceanic
04:01PM 37.6208 -70.8822 325° Northwest 468 539 36,000  Level New York Center
04:02PM 37.7167 -70.9833 330° Northwest 474 545 36,000  Level FlightAware Transoceanic
04:02PM 37.7206 -70.9850 321° Northwest 474 545 36,000  Level New York Center
04:03PM 37.8260 -71.0639 330° Northwest 474 545 36,000  Level FlightAware Transoceanic
04:03PM 37.8267 -71.0825 324° Northwest 474 545 36,000  Level New York Center
04:04PM 37.9222 -71.1961 317° Northwest 468 539 36,000  Level New York Center
04:05PM 38.0156 -71.3103 316° Northwest 468 539 36,000  Level New York Center
04:06PM 38.1069 -71.4244 316° Northwest 463 533 36,000  Level New York Center
04:07PM 38.1978 -71.5469 313° West 463 533 36,000  Level New York Center
04:08PM 38.2931 -71.6511 319° Northwest 463 533 36,000  Level New York Center
04:09PM 38.3881 -71.7608 318° Northwest 457 526 36,000  Level New York Center
04:10PM 38.4806 -71.8869 313° West 457 526 36,000  Level New York Center
04:11PM 38.5733 -72.0025 316° Northwest 462 532 36,000  Level New York Center
04:12PM 38.6681 -72.1158 317° Northwest 467 537 36,000  Level New York Center
04:13PM 38.7603 -72.2428 313° West 467 537 36,000 -1,140 Level New York Center
04:14PM 38.8567 -72.3542 318° Northwest 467 537 33,800 -2,700 Descending New York Center
04:15PM 38.9508 -72.4819 313° West 472 543 30,600 -3,300 Descending New York Center
04:16PM 39.0431 -72.5964 316° Northwest 477 549 27,300 -2,820 Descending New York Center
04:17PM 39.1308 -72.7111 315° West 467 537 25,100 -2,220 Descending New York Center
04:18PM 39.2144 -72.8178 315° West 446 513 23,000 -2,100 Descending New York Center
04:19PM 39.2747 -72.9350 304° West 403 464 20,900 -1,860 Descending New York Center
04:20PM 39.2889 -73.0694 278° West 377 434 19,400 -1,680 Descending New York Center
04:21PM 39.3264 -73.1756 295° West 377 434 17,600 -1,980 Descending New York Center
04:22PM 39.4103 -73.2508 325° Northwest 352 405 15,500 -2,040 Descending New York Center
04:23PM 39.4981 -73.3319 325° Northwest 352 405 13,600 -1,980 Descending New York Center
04:24PM 39.5736 -73.4047 323° Northwest 352 405 11,600 -1,680 Descending New York Center
04:25PM 39.6406 -73.4828 318° Northwest 352 405 10,300 -1,020 Descending New York Center
04:26PM 39.7181 -73.5586 323° Northwest 352 405 9,600 -660 Descending New York Center
04:27PM 39.7914 -73.6344 322° Northwest 347 399 9,000 -360 Descending New York Center
04:28PM 39.8606 -73.7022 323° Northwest 336 387 9,000  Level New York Center
04:29PM 39.9500 -73.8000 320° Northwest 298 343 9,100  Climbing New York TRACON
04:30PM 39.9817 -73.8592 305° West 294 338 9,000  Descending New York Center
04:31PM 40.0606 -73.8653 357° North 264 304 9,100 -480 Climbing New York Center
04:32PM 40.1311 -73.7925 38° Northeast 270 311 8,100 -900 Descending New York Center
04:33PM 40.1911 -73.7300 39° Northeast 301 346 7,400 -600 Descending New York Center
04:34PM 40.2681 -73.6569 36° Northeast 307 353 7,000 -240 Descending New York Center
04:35PM 40.3339 -73.6081 30° Northeast 301 346 7,000  Level New York Center
04:36PM 40.4244 -73.5600 22° Northeast 301 346 7,000  Level New York Center
04:37PM 40.4983 -73.5275 18° North 301 346 7,000 -600 Level New York Center
04:38PM 40.5847 -73.4875 19° North 301 346 5,900 -1,200 Descending New York Center
04:39PM 40.6561 -73.4547 19° North 301 346 4,700 -1,320 Descending New York Center
04:40PM 40.7375 -73.4578 358° North 265 305 3,300 -840 Descending New York Center
04:41PM 40.7800 -73.5061 319° Northwest 236 272 3,100 -420 Descending New York Center
04:42PM 40.8058 -73.5564 304° West 191 220 2,500 -600 Descending New York Center
04:43PM 40.7836 -73.6242 247° West 167 192 2,000 -300 Descending New York Center
04:44PM 40.7500 -73.6833 233° Southwest 173 199 2,000 -300 Level New York TRACON
04:45PM 40.7000 -73.7167 207° Southwest 160 184 1,400 -660 Descending New York TRACON
04:46PM 40.6667 -73.7333 201° Southwest 132 152 700 -720 Descending New York TRACON